createdAt,value
2022-08-05T00:01:35.553Z,27.80
2022-08-05T00:04:03.810Z,27.70
2022-08-05T00:06:36.136Z,27.60
2022-08-05T00:09:12.913Z,27.60
2022-08-05T00:11:48.330Z,27.50
2022-08-05T00:14:18.786Z,27.50
2022-08-05T00:16:53.707Z,27.50
2022-08-05T00:19:32.921Z,27.40
2022-08-05T00:22:06.235Z,27.40
2022-08-05T00:24:35.356Z,27.40
2022-08-05T00:27:04.751Z,27.20
2022-08-05T00:29:38.048Z,27.20
2022-08-05T00:32:13.195Z,27.20
2022-08-05T00:35:03.761Z,27.20
2022-08-05T00:37:35.870Z,27.20
2022-08-05T00:40:26.904Z,27.10
2022-08-05T00:42:57.547Z,27.00
2022-08-05T00:45:38.930Z,27.00
2022-08-05T00:48:31.535Z,26.80
2022-08-05T00:51:00.748Z,26.80
2022-08-05T00:53:45.306Z,26.70
2022-08-05T00:56:23.092Z,26.60
2022-08-05T00:58:52.721Z,26.30
2022-08-05T01:01:24.665Z,25.40
2022-08-05T01:04:15.762Z,24.90
2022-08-05T01:06:48.525Z,24.80
2022-08-05T01:09:17.235Z,25.00
2022-08-05T01:11:49.833Z,25.10
2022-08-05T01:14:33.251Z,25.20
2022-08-05T01:17:02.924Z,25.30
2022-08-05T01:20:03.761Z,25.30
2022-08-05T01:22:47.051Z,25.20
2022-08-05T01:25:53.400Z,24.70
2022-08-05T01:28:49.625Z,24.60
2022-08-05T01:31:51.210Z,24.40
2022-08-05T01:34:30.921Z,24.30
2022-08-05T01:37:24.727Z,24.30
2022-08-05T01:39:58.917Z,24.40
2022-08-05T01:42:27.717Z,24.40
2022-08-05T01:45:02.263Z,24.30
2022-08-05T01:47:39.344Z,24.20
2022-08-05T01:50:18.672Z,24.00
2022-08-05T01:53:03.034Z,24.00
2022-08-05T01:55:36.241Z,24.00
2022-08-05T01:58:30.226Z,23.90
2022-08-05T02:00:58.522Z,23.80
2022-08-05T02:03:40.663Z,23.80
2022-08-05T02:06:23.996Z,23.80
2022-08-05T02:08:59.117Z,23.90
2022-08-05T02:11:33.409Z,23.90
2022-08-05T02:14:12.414Z,24.00
2022-08-05T02:16:52.771Z,24.00
2022-08-05T02:19:28.727Z,24.10
2022-08-05T02:22:04.030Z,24.10
2022-08-05T02:24:38.336Z,24.10
2022-08-05T02:27:11.135Z,24.10
2022-08-05T02:30:00.097Z,23.90
2022-08-05T02:32:31.424Z,23.70
2022-08-05T02:35:13.531Z,23.60
2022-08-05T02:37:43.095Z,23.60
2022-08-05T02:40:16.969Z,23.60
2022-08-05T02:42:52.692Z,23.60
2022-08-05T02:45:24.192Z,23.60
2022-08-05T02:48:11.519Z,23.30
2022-08-05T02:50:43.806Z,23.10
2022-08-05T02:53:16.124Z,23.20
2022-08-05T02:55:52.155Z,23.20
2022-08-05T02:58:26.851Z,23.30
2022-08-05T03:00:56.530Z,23.40
2022-08-05T03:03:23.843Z,23.50
2022-08-05T03:06:54.185Z,23.50
2022-08-05T03:08:42.634Z,23.50
2022-08-05T03:11:53.611Z,23.50
2022-08-05T03:14:13.844Z,23.60
2022-08-05T03:16:41.593Z,23.60
2022-08-05T03:19:16.926Z,23.60
2022-08-05T03:21:48.694Z,23.60
2022-08-05T03:24:29.312Z,23.60
2022-08-05T03:26:56.486Z,23.60
2022-08-05T03:29:45.215Z,23.60
2022-08-05T03:32:17.718Z,23.70
2022-08-05T03:34:50.537Z,23.70
2022-08-05T03:37:19.237Z,23.70
2022-08-05T03:39:58.948Z,23.70
2022-08-05T03:42:29.066Z,23.70
2022-08-05T03:44:59.319Z,23.70
2022-08-05T03:47:30.550Z,23.70
2022-08-05T03:50:02.301Z,23.70
2022-08-05T03:52:38.146Z,23.70
2022-08-05T03:56:01.608Z,23.80
2022-08-05T03:58:22.873Z,23.80
2022-08-05T04:00:57.859Z,23.80
2022-08-05T04:03:29.282Z,23.80
2022-08-05T04:05:57.910Z,23.70
2022-08-05T04:08:36.033Z,23.70
2022-08-05T04:11:07.536Z,23.70
2022-08-05T04:13:50.873Z,23.70
2022-08-05T04:16:24.266Z,23.70
2022-08-05T04:18:59.959Z,23.70
2022-08-05T04:22:05.237Z,23.70
2022-08-05T04:24:19.555Z,23.70
2022-08-05T04:26:49.910Z,23.70
2022-08-05T04:29:16.951Z,23.60
2022-08-05T04:31:48.233Z,23.60
2022-08-05T04:34:32.820Z,23.60
2022-08-05T04:37:03.115Z,23.60
2022-08-05T04:39:35.582Z,23.60
2022-08-05T04:42:08.154Z,23.60
2022-08-05T04:44:35.829Z,23.50
2022-08-05T04:47:08.939Z,23.50
2022-08-05T04:50:01.129Z,23.50
2022-08-05T04:52:27.787Z,23.50
2022-08-05T04:54:57.077Z,23.40
2022-08-05T04:57:28.676Z,23.40
2022-08-05T04:59:56.472Z,23.40
2022-08-05T05:02:37.593Z,23.40
2022-08-05T05:05:26.107Z,23.30
2022-08-05T05:08:01.088Z,23.30
2022-08-05T05:10:30.774Z,23.30
2022-08-05T05:13:04.393Z,23.30
2022-08-05T05:15:56.891Z,23.20
2022-08-05T05:18:31.075Z,23.20
2022-08-05T05:21:01.018Z,23.30
2022-08-05T05:23:39.319Z,23.30
2022-08-05T05:26:17.154Z,23.30
2022-08-05T05:28:46.070Z,23.30
2022-08-05T05:31:13.326Z,23.30
2022-08-05T05:33:57.045Z,23.30
2022-08-05T05:36:28.540Z,23.30
2022-08-05T05:38:57.131Z,23.30
2022-08-05T05:41:24.068Z,23.30
2022-08-05T05:43:58.619Z,23.30
2022-08-05T05:46:27.375Z,23.30
2022-08-05T05:48:54.034Z,23.30
2022-08-05T05:51:25.688Z,23.30
2022-08-05T05:53:58.612Z,23.20
2022-08-05T05:56:32.964Z,23.20
2022-08-05T05:59:06.820Z,23.20
2022-08-05T06:01:37.772Z,23.20
2022-08-05T06:04:12.713Z,23.20
2022-08-05T06:06:47.732Z,23.10
2022-08-05T06:09:17.610Z,23.10
2022-08-05T06:12:01.809Z,23.10
2022-08-05T06:14:30.577Z,23.20
2022-08-05T06:16:57.909Z,23.20
2022-08-05T06:19:34.627Z,23.20
2022-08-05T06:22:06.879Z,23.20
2022-08-05T06:24:35.217Z,23.20
2022-08-05T06:27:04.146Z,23.20
2022-08-05T06:29:49.529Z,23.20
2022-08-05T06:32:25.254Z,23.20
2022-08-05T06:34:56.886Z,23.20
2022-08-05T06:37:57.764Z,23.20
2022-08-05T06:40:18.286Z,23.20
2022-08-05T06:42:48.417Z,23.20
2022-08-05T06:45:20.735Z,23.20
2022-08-05T06:48:36.080Z,23.20
2022-08-05T06:50:35.337Z,23.30
2022-08-05T06:53:11.499Z,23.30
2022-08-05T06:55:38.509Z,23.30
2022-08-05T06:58:29.904Z,23.30
2022-08-05T07:01:04.473Z,23.40
2022-08-05T07:03:33.169Z,23.40
2022-08-05T07:06:06.126Z,23.40
2022-08-05T07:08:51.760Z,23.30
2022-08-05T07:11:25.238Z,23.40
2022-08-05T07:14:20.678Z,23.40
2022-08-05T07:18:08.749Z,23.50
2022-08-05T07:22:28.169Z,23.50
2022-08-05T07:24:57.794Z,23.60
2022-08-05T07:27:27.769Z,23.70
2022-08-05T07:30:27.255Z,24.00
2022-08-05T07:32:57.438Z,24.30
2022-08-05T07:36:04.400Z,24.50
2022-08-05T07:38:33.741Z,24.50
2022-08-05T07:41:16.708Z,24.50
2022-08-05T07:43:47.685Z,24.80
2022-08-05T07:46:24.601Z,25.10
2022-08-05T07:49:02.294Z,25.20
2022-08-05T07:51:40.435Z,25.10
2022-08-05T07:54:11.515Z,25.10
2022-08-05T07:57:02.740Z,25.20
2022-08-05T07:59:38.860Z,25.40
2022-08-05T08:02:16.996Z,25.60
2022-08-05T08:04:48.336Z,25.80
2022-08-05T08:07:17.961Z,25.90
2022-08-05T08:09:50.408Z,26.10
2022-08-05T08:12:27.542Z,26.10
2022-08-05T08:15:13.871Z,26.10
2022-08-05T08:17:46.327Z,26.20
2022-08-05T08:20:43.057Z,26.20
2022-08-05T08:23:04.362Z,26.30
2022-08-05T08:26:00.435Z,26.30
2022-08-05T08:28:36.239Z,26.20
2022-08-05T08:31:08.015Z,26.00
2022-08-05T08:33:35.935Z,26.00
2022-08-05T08:38:58.108Z,25.90
2022-08-05T08:41:52.612Z,25.90
2022-08-05T08:45:18.521Z,25.80
2022-08-05T08:47:47.607Z,25.80
2022-08-05T08:50:07.583Z,25.70
2022-08-05T08:52:51.870Z,25.70
2022-08-05T08:56:01.847Z,25.70
2022-08-05T08:58:09.014Z,25.80
2022-08-05T09:00:39.899Z,26.00
2022-08-05T09:03:09.128Z,26.00
2022-08-05T09:05:38.257Z,26.10
2022-08-05T09:08:27.349Z,26.10
2022-08-05T09:10:56.911Z,26.10
2022-08-05T09:13:24.586Z,26.10
2022-08-05T09:16:01.095Z,26.20
2022-08-05T09:18:29.761Z,26.10
2022-08-05T09:20:56.760Z,26.20
2022-08-05T09:23:28.897Z,26.20
2022-08-05T09:26:20.594Z,26.20
2022-08-05T09:28:58.923Z,26.20
2022-08-05T09:32:39.190Z,26.20
2022-08-05T09:34:14.776Z,26.20
2022-08-05T09:36:59.180Z,26.20
2022-08-05T09:39:45.136Z,26.10
2022-08-05T09:42:24.076Z,26.20
2022-08-05T09:44:57.424Z,26.20
2022-08-05T09:47:55.507Z,26.20
2022-08-05T09:50:38.802Z,26.30
2022-08-05T09:53:22.786Z,26.30
2022-08-05T09:56:04.682Z,26.30
2022-08-05T09:58:31.988Z,26.30
2022-08-05T10:01:01.243Z,26.40
2022-08-05T10:03:56.929Z,26.40
2022-08-05T10:06:19.959Z,26.50
2022-08-05T10:08:50.409Z,26.50
2022-08-05T10:11:24.274Z,26.50
2022-08-05T10:13:58.189Z,26.50
2022-08-05T10:16:34.103Z,26.50
2022-08-05T10:19:09.434Z,26.50
2022-08-05T10:21:40.707Z,26.40
2022-08-05T10:24:12.898Z,26.50
2022-08-05T10:26:51.996Z,26.50
2022-08-05T10:30:05.773Z,26.50
2022-08-05T10:33:01.487Z,26.50
2022-08-05T10:35:01.409Z,26.50
2022-08-05T10:37:44.375Z,26.50
2022-08-05T10:40:40.636Z,26.50
2022-08-05T10:43:23.236Z,26.60
2022-08-05T10:46:06.402Z,26.60
2022-08-05T10:48:56.954Z,26.60
2022-08-05T10:51:28.909Z,26.60
2022-08-05T10:54:05.853Z,26.50
2022-08-05T10:56:59.186Z,26.40
2022-08-05T11:00:02.793Z,26.40
2022-08-05T11:02:34.894Z,26.40
2022-08-05T11:05:08.339Z,26.50
2022-08-05T11:08:01.742Z,26.60
2022-08-05T11:10:37.559Z,26.70
2022-08-05T11:13:40.766Z,26.60
2022-08-05T11:16:33.844Z,26.50
2022-08-05T11:20:16.793Z,26.40
2022-08-05T11:22:50.035Z,26.40
2022-08-05T11:26:04.711Z,26.30
2022-08-05T11:28:20.464Z,26.30
2022-08-05T11:30:58.733Z,26.20
2022-08-05T11:33:44.205Z,26.10
2022-08-05T11:36:33.947Z,26.10
2022-08-05T11:39:04.075Z,26.10
2022-08-05T11:41:58.304Z,26.20
2022-08-05T11:44:53.114Z,26.10
2022-08-05T11:47:15.203Z,26.10
2022-08-05T11:49:49.796Z,26.00
2022-08-05T11:52:31.259Z,26.00
2022-08-05T11:55:07.401Z,26.10
2022-08-05T11:57:39.556Z,26.20
2022-08-05T12:00:31.608Z,26.20
2022-08-05T12:03:14.702Z,26.30
2022-08-05T12:05:44.009Z,26.40
2022-08-05T12:08:11.737Z,26.50
2022-08-05T12:10:46.571Z,26.60
2022-08-05T12:13:48.072Z,26.70
2022-08-05T12:16:15.098Z,26.80
2022-08-05T12:18:49.489Z,26.90
2022-08-05T12:21:31.891Z,26.90
2022-08-05T12:24:04.342Z,27.00
2022-08-05T12:26:44.108Z,27.00
2022-08-05T12:29:16.317Z,27.10
2022-08-05T12:31:55.947Z,27.10
2022-08-05T12:34:32.086Z,27.10
2022-08-05T12:37:03.387Z,27.20
2022-08-05T12:39:37.125Z,27.10
2022-08-05T12:42:16.061Z,27.10
2022-08-05T12:44:48.341Z,27.10
2022-08-05T12:47:30.631Z,27.10
2022-08-05T12:50:04.683Z,27.10
2022-08-05T12:52:39.506Z,27.10
2022-08-05T12:55:27.053Z,27.10
2022-08-05T12:58:50.579Z,27.10
2022-08-05T13:02:01.081Z,27.10
2022-08-05T13:03:34.714Z,27.20
2022-08-05T13:06:11.830Z,27.20
2022-08-05T13:08:38.823Z,27.30
2022-08-05T13:11:07.832Z,27.30
2022-08-05T13:14:04.638Z,27.30
2022-08-05T13:16:28.737Z,27.30
2022-08-05T13:18:58.539Z,27.30
2022-08-05T13:21:42.049Z,27.20
2022-08-05T13:24:36.282Z,27.20
2022-08-05T13:27:05.834Z,27.10
2022-08-05T13:29:38.084Z,27.00
2022-08-05T13:32:07.777Z,27.00
2022-08-05T13:34:37.981Z,26.90
2022-08-05T13:37:09.758Z,26.90
2022-08-05T13:40:16.617Z,26.70
2022-08-05T13:42:25.935Z,26.60
2022-08-05T13:44:57.328Z,26.50
2022-08-05T13:47:36.040Z,26.50
2022-08-05T13:50:16.642Z,26.50
2022-08-05T13:52:44.089Z,26.40
2022-08-05T13:55:10.807Z,26.30
2022-08-05T13:57:50.735Z,26.10
2022-08-05T14:00:26.810Z,26.00
2022-08-05T14:02:55.888Z,26.00
2022-08-05T14:05:48.473Z,26.00
2022-08-05T14:08:20.232Z,26.00
2022-08-05T14:10:54.315Z,26.00
2022-08-05T14:13:30.283Z,25.90
2022-08-05T14:16:08.274Z,25.80
2022-08-05T14:18:40.237Z,25.70
2022-08-05T14:22:08.336Z,25.70
2022-08-05T14:24:00.738Z,25.60
2022-08-05T14:26:36.983Z,25.60
2022-08-05T14:29:16.731Z,25.50
2022-08-05T14:32:03.250Z,25.50
2022-08-05T14:34:35.194Z,25.60
2022-08-05T14:37:04.109Z,25.50
2022-08-05T14:39:49.527Z,25.50
2022-08-05T14:42:22.340Z,25.40
2022-08-05T14:44:49.353Z,25.40
2022-08-05T14:47:17.176Z,25.40
2022-08-05T14:50:12.815Z,25.40
2022-08-05T14:52:53.197Z,25.20
2022-08-05T14:55:24.355Z,25.00
2022-08-05T14:57:56.151Z,24.90
2022-08-05T15:00:25.256Z,24.80
2022-08-05T15:02:58.417Z,24.80
2022-08-05T15:05:30.101Z,24.80
2022-08-05T15:08:58.412Z,24.90
2022-08-05T15:11:02.847Z,24.80
2022-08-05T15:13:44.954Z,24.70
2022-08-05T15:16:15.960Z,24.60
2022-08-05T15:18:47.076Z,24.70
2022-08-05T15:21:14.233Z,24.80
2022-08-05T15:23:43.385Z,24.80
2022-08-05T15:26:10.072Z,24.80
2022-08-05T15:28:36.756Z,24.90
2022-08-05T15:31:10.421Z,24.90
2022-08-05T15:34:05.686Z,24.90
2022-08-05T15:36:24.597Z,24.90
2022-08-05T15:40:59.878Z,24.80
2022-08-05T15:41:57.451Z,24.80
2022-08-05T15:44:25.902Z,24.80
2022-08-05T15:46:54.622Z,24.70
2022-08-05T15:49:41.931Z,24.70
2022-08-05T15:52:16.309Z,24.80
2022-08-05T15:54:55.833Z,24.70
2022-08-05T15:57:23.485Z,24.60
2022-08-05T15:59:53.996Z,24.60
2022-08-05T16:02:25.186Z,24.70
2022-08-05T16:04:55.250Z,24.70
2022-08-05T16:07:22.920Z,24.70
2022-08-05T16:09:52.353Z,24.70
2022-08-05T16:12:20.936Z,24.70
2022-08-05T16:14:50.409Z,24.70
2022-08-05T16:17:17.125Z,24.70
2022-08-05T16:20:05.191Z,24.70
2022-08-05T16:22:34.126Z,24.60
2022-08-05T16:25:08.064Z,24.70
2022-08-05T16:28:00.039Z,24.70
2022-08-05T16:30:26.133Z,24.70
2022-08-05T16:32:55.256Z,24.70
2022-08-05T16:35:27.669Z,24.50
2022-08-05T16:38:15.678Z,24.50
2022-08-05T16:40:55.378Z,24.40
2022-08-05T16:43:28.229Z,24.50
2022-08-05T16:46:05.011Z,24.50
2022-08-05T16:48:39.021Z,24.60
2022-08-05T16:51:10.806Z,24.60
2022-08-05T16:54:05.211Z,24.60
2022-08-05T16:56:33.755Z,24.60
2022-08-05T16:59:08.969Z,24.50
2022-08-05T17:01:53.837Z,24.60
2022-08-05T17:04:26.179Z,24.70
2022-08-05T17:06:55.324Z,24.70
2022-08-05T17:09:26.990Z,24.70
2022-08-05T17:11:59.605Z,24.70
2022-08-05T17:14:37.022Z,24.60
2022-08-05T17:17:06.691Z,24.50
2022-08-05T17:19:43.685Z,24.50
2022-08-05T17:22:17.740Z,24.50
2022-08-05T17:24:57.715Z,24.50
2022-08-05T17:27:27.302Z,24.40
2022-08-05T17:30:02.522Z,24.50
2022-08-05T17:32:33.711Z,24.40
2022-08-05T17:35:04.176Z,24.40
2022-08-05T17:37:41.386Z,24.30
2022-08-05T17:40:14.427Z,24.30
2022-08-05T17:42:51.078Z,24.30
2022-08-05T17:45:24.998Z,24.30
2022-08-05T17:47:56.637Z,24.20
2022-08-05T17:50:28.178Z,24.20
2022-08-05T17:52:58.872Z,24.10
2022-08-05T17:55:34.080Z,23.90
2022-08-05T17:58:04.154Z,23.90
2022-08-05T18:00:31.060Z,24.00
2022-08-05T18:02:57.741Z,24.00
2022-08-05T18:05:27.948Z,24.10
2022-08-05T18:07:57.448Z,24.00
2022-08-05T18:10:24.340Z,24.00
2022-08-05T18:12:52.439Z,23.90
2022-08-05T18:15:22.143Z,23.90
2022-08-05T18:17:58.856Z,23.80
2022-08-05T18:20:32.403Z,23.70
2022-08-05T18:23:09.106Z,23.70
2022-08-05T18:25:44.787Z,23.70
2022-08-05T18:28:12.128Z,23.70
2022-08-05T18:30:45.808Z,23.70
2022-08-05T18:33:23.065Z,23.70
2022-08-05T18:36:03.773Z,23.70
2022-08-05T18:38:37.839Z,23.60
2022-08-05T18:41:57.940Z,23.50
2022-08-05T18:43:54.034Z,23.40
2022-08-05T18:46:21.214Z,23.40
2022-08-05T18:48:51.950Z,23.30
2022-08-05T18:52:04.715Z,23.30
2022-08-05T18:54:31.179Z,23.20
2022-08-05T18:57:00.938Z,23.20
2022-08-05T18:59:43.895Z,23.10
2022-08-05T19:02:38.035Z,23.10
2022-08-05T19:06:12.873Z,23.00
2022-08-05T19:07:56.855Z,22.90
2022-08-05T19:10:28.480Z,22.90
2022-08-05T19:12:56.139Z,22.80
2022-08-05T19:15:58.229Z,22.70
2022-08-05T19:18:21.059Z,22.70
2022-08-05T19:20:52.071Z,22.70
2022-08-05T19:24:04.119Z,22.60
2022-08-05T19:26:09.283Z,22.60
2022-08-05T19:28:44.729Z,22.50
2022-08-05T19:31:13.230Z,22.50
2022-08-05T19:33:48.367Z,22.60
2022-08-05T19:36:25.146Z,22.60
2022-08-05T19:39:00.672Z,22.50
2022-08-05T19:41:58.423Z,22.50
2022-08-05T19:44:15.692Z,22.40
2022-08-05T19:46:43.717Z,22.40
2022-08-05T19:49:12.459Z,22.30
2022-08-05T19:52:08.266Z,22.30
2022-08-05T19:54:34.915Z,22.10
2022-08-05T19:57:09.175Z,22.00
2022-08-05T19:59:55.859Z,22.00
2022-08-05T20:02:30.325Z,22.00
2022-08-05T20:04:58.973Z,21.90
2022-08-05T20:07:47.820Z,21.80
2022-08-05T20:10:17.174Z,21.80
2022-08-05T20:12:48.416Z,21.80
2022-08-05T20:15:23.138Z,21.70
2022-08-05T20:18:10.456Z,21.70
2022-08-05T20:20:57.525Z,21.70
2022-08-05T20:23:39.899Z,21.70
2022-08-05T20:26:17.261Z,21.60
2022-08-05T20:28:47.882Z,21.50
2022-08-05T20:31:16.650Z,21.50
2022-08-05T20:33:44.455Z,21.40
2022-08-05T20:36:11.949Z,21.40
2022-08-05T20:38:53.818Z,21.30
2022-08-05T20:41:44.211Z,21.30
2022-08-05T20:44:18.694Z,21.30
2022-08-05T20:46:55.953Z,21.30
2022-08-05T20:49:28.210Z,21.20
2022-08-05T20:51:58.544Z,21.20
2022-08-05T20:54:43.478Z,21.20
2022-08-05T20:57:14.616Z,21.20
2022-08-05T21:00:21.156Z,21.20
2022-08-05T21:02:51.464Z,21.20
2022-08-05T21:05:18.894Z,21.20
2022-08-05T21:07:51.807Z,21.20
2022-08-05T21:10:23.644Z,21.20
2022-08-05T21:13:09.042Z,21.10
2022-08-05T21:15:44.432Z,21.20
2022-08-05T21:18:20.020Z,21.20
2022-08-05T21:20:55.302Z,21.10
2022-08-05T21:23:22.558Z,21.00
2022-08-05T21:25:51.576Z,21.00
2022-08-05T21:28:23.856Z,20.90
2022-08-05T21:30:57.501Z,20.90
2022-08-05T21:33:24.282Z,20.90
2022-08-05T21:36:04.072Z,20.80
2022-08-05T21:38:30.848Z,20.90
2022-08-05T21:40:57.664Z,20.80
2022-08-05T21:43:25.146Z,20.80
2022-08-05T21:45:57.614Z,20.80
2022-08-05T21:48:27.902Z,20.70
2022-08-05T21:50:55.231Z,20.80
2022-08-05T21:53:27.853Z,20.70
2022-08-05T21:56:05.869Z,20.60
2022-08-05T21:58:42.497Z,20.50
2022-08-05T22:01:24.884Z,20.50
2022-08-05T22:03:53.691Z,20.40
2022-08-05T22:06:22.540Z,20.30
2022-08-05T22:08:52.748Z,20.30
2022-08-05T22:11:35.368Z,20.20
2022-08-05T22:14:19.871Z,20.20
2022-08-05T22:16:56.035Z,20.10
2022-08-05T22:20:02.477Z,20.10
2022-08-05T22:22:12.466Z,20.20
2022-08-05T22:25:00.120Z,20.20
2022-08-05T22:28:11.223Z,20.10
2022-08-05T22:30:35.945Z,20.20
2022-08-05T22:33:15.237Z,20.10
2022-08-05T22:35:48.823Z,20.00
2022-08-05T22:38:19.006Z,19.90
2022-08-05T22:40:49.392Z,19.80
2022-08-05T22:43:36.520Z,19.80
2022-08-05T22:46:13.745Z,19.70
2022-08-05T22:48:50.253Z,19.70
2022-08-05T22:51:22.951Z,19.60
2022-08-05T22:53:56.579Z,19.60
2022-08-05T22:56:30.678Z,19.60
2022-08-05T22:59:03.228Z,19.60
2022-08-05T23:02:03.931Z,19.50
2022-08-05T23:04:34.774Z,19.50
2022-08-05T23:07:01.829Z,19.50
2022-08-05T23:09:57.759Z,19.40
2022-08-05T23:12:17.682Z,19.40
2022-08-05T23:14:46.810Z,19.40
2022-08-05T23:17:34.803Z,19.30
2022-08-05T23:20:06.578Z,19.30
2022-08-05T23:22:43.981Z,19.30
2022-08-05T23:25:17.573Z,19.30
2022-08-05T23:28:03.362Z,19.30
2022-08-05T23:30:40.648Z,19.30
2022-08-05T23:33:16.486Z,19.20
2022-08-05T23:35:55.900Z,19.20
2022-08-05T23:38:26.134Z,19.20
2022-08-05T23:40:53.578Z,19.00
2022-08-05T23:43:25.747Z,18.90
2022-08-05T23:46:20.579Z,18.90
2022-08-05T23:48:59.817Z,18.80
2022-08-05T23:51:53.335Z,18.80
2022-08-05T23:54:29.945Z,18.80
2022-08-05T23:57:04.141Z,18.70
